sensor_id;sensor_type;location;lat;lon;timestamp;temperature;humidity
7341;DHT22;6870;50.944;6.932;2023-05-13T00:02:09;23.10;36.00
7341;DHT22;6870;50.944;6.932;2023-05-13T00:04:37;23.30;36.70
7341;DHT22;6870;50.944;6.932;2023-05-13T00:07:05;23.30;35.80
7341;DHT22;6870;50.944;6.932;2023-05-13T00:09:33;23.00;35.40
7341;DHT22;6870;50.944;6.932;2023-05-13T00:12:01;23.40;35.80
7341;DHT22;6870;50.944;6.932;2023-05-13T00:14:29;22.80;35.20
7341;DHT22;6870;50.944;6.932;2023-05-13T00:16:59;23.30;36.70
7341;DHT22;6870;50.944;6.932;2023-05-13T00:19:30;23.40;37.00
7341;DHT22;6870;50.944;6.932;2023-05-13T00:21:58;23.30;37.00
7341;DHT22;6870;50.944;6.932;2023-05-13T00:24:26;23.00;35.90
7341;DHT22;6870;50.944;6.932;2023-05-13T00:26:54;23.00;36.30
7341;DHT22;6870;50.944;6.932;2023-05-13T00:29:22;23.30;36.50
7341;DHT22;6870;50.944;6.932;2023-05-13T00:31:50;23.40;36.70
7341;DHT22;6870;50.944;6.932;2023-05-13T00:34:20;23.20;36.20
7341;DHT22;6870;50.944;6.932;2023-05-13T00:36:48;23.20;36.20
7341;DHT22;6870;50.944;6.932;2023-05-13T00:39:16;23.20;36.80
7341;DHT22;6870;50.944;6.932;2023-05-13T00:41:44;23.30;36.90
7341;DHT22;6870;50.944;6.932;2023-05-13T00:44:12;23.00;37.10
7341;DHT22;6870;50.944;6.932;2023-05-13T00:46:41;23.10;36.80
7341;DHT22;6870;50.944;6.932;2023-05-13T00:49:09;23.00;37.00
7341;DHT22;6870;50.944;6.932;2023-05-13T00:51:38;23.20;36.70
7341;DHT22;6870;50.944;6.932;2023-05-13T00:54:07;23.10;37.30
7341;DHT22;6870;50.944;6.932;2023-05-13T00:56:36;23.00;37.30
7341;DHT22;6870;50.944;6.932;2023-05-13T00:59:04;23.00;37.40
7341;DHT22;6870;50.944;6.932;2023-05-13T01:01:39;22.70;36.80
7341;DHT22;6870;50.944;6.932;2023-05-13T01:04:19;23.00;37.50
7341;DHT22;6870;50.944;6.932;2023-05-13T01:06:57;23.30;37.10
7341;DHT22;6870;50.944;6.932;2023-05-13T01:09:38;23.20;37.00
7341;DHT22;6870;50.944;6.932;2023-05-13T01:12:20;23.00;37.40
7341;DHT22;6870;50.944;6.932;2023-05-13T01:14:53;23.20;37.70
7341;DHT22;6870;50.944;6.932;2023-05-13T01:17:31;23.10;37.60
7341;DHT22;6870;50.944;6.932;2023-05-13T01:20:03;23.00;37.50
7341;DHT22;6870;50.944;6.932;2023-05-13T01:22:34;22.90;37.40
7341;DHT22;6870;50.944;6.932;2023-05-13T01:25:02;22.70;36.90
7341;DHT22;6870;50.944;6.932;2023-05-13T01:27:30;23.20;37.30
7341;DHT22;6870;50.944;6.932;2023-05-13T01:29:58;22.70;37.30
7341;DHT22;6870;50.944;6.932;2023-05-13T01:32:26;22.80;37.60
7341;DHT22;6870;50.944;6.932;2023-05-13T01:34:55;23.00;38.00
7341;DHT22;6870;50.944;6.932;2023-05-13T01:37:23;22.90;37.00
7341;DHT22;6870;50.944;6.932;2023-05-13T01:39:53;22.80;38.10
7341;DHT22;6870;50.944;6.932;2023-05-13T01:42:22;23.10;38.00
7341;DHT22;6870;50.944;6.932;2023-05-13T01:44:51;23.10;38.40
7341;DHT22;6870;50.944;6.932;2023-05-13T01:47:20;22.80;37.20
7341;DHT22;6870;50.944;6.932;2023-05-13T01:49:48;23.00;37.20
7341;DHT22;6870;50.944;6.932;2023-05-13T01:52:16;23.10;38.10
7341;DHT22;6870;50.944;6.932;2023-05-13T01:54:44;23.10;37.80
7341;DHT22;6870;50.944;6.932;2023-05-13T01:57:15;22.90;37.60
7341;DHT22;6870;50.944;6.932;2023-05-13T01:59:43;23.10;38.00
7341;DHT22;6870;50.944;6.932;2023-05-13T02:02:11;23.20;37.40
7341;DHT22;6870;50.944;6.932;2023-05-13T02:04:39;22.90;37.00
7341;DHT22;6870;50.944;6.932;2023-05-13T02:07:07;23.20;37.40
7341;DHT22;6870;50.944;6.932;2023-05-13T02:09:36;22.80;37.20
7341;DHT22;6870;50.944;6.932;2023-05-13T02:12:04;22.60;37.10
7341;DHT22;6870;50.944;6.932;2023-05-13T02:14:35;23.00;37.80
7341;DHT22;6870;50.944;6.932;2023-05-13T02:17:04;23.00;37.70
7341;DHT22;6870;50.944;6.932;2023-05-13T02:19:32;22.80;37.50
7341;DHT22;6870;50.944;6.932;2023-05-13T02:22:00;22.90;37.80
7341;DHT22;6870;50.944;6.932;2023-05-13T02:24:29;22.80;37.80
7341;DHT22;6870;50.944;6.932;2023-05-13T02:26:57;22.80;37.70
7341;DHT22;6870;50.944;6.932;2023-05-13T02:29:25;22.90;37.80
7341;DHT22;6870;50.944;6.932;2023-05-13T02:31:55;22.80;37.80
7341;DHT22;6870;50.944;6.932;2023-05-13T02:34:58;22.50;37.80
7341;DHT22;6870;50.944;6.932;2023-05-13T02:37:26;22.50;38.10
7341;DHT22;6870;50.944;6.932;2023-05-13T02:39:54;22.80;37.70
7341;DHT22;6870;50.944;6.932;2023-05-13T02:42:22;22.50;37.60
7341;DHT22;6870;50.944;6.932;2023-05-13T02:44:50;22.90;37.90
7341;DHT22;6870;50.944;6.932;2023-05-13T02:47:20;22.50;37.50
7341;DHT22;6870;50.944;6.932;2023-05-13T02:49:48;22.90;38.00
7341;DHT22;6870;50.944;6.932;2023-05-13T02:52:16;22.70;37.70
7341;DHT22;6870;50.944;6.932;2023-05-13T02:54:44;22.90;37.80
7341;DHT22;6870;50.944;6.932;2023-05-13T02:57:12;23.00;38.10
7341;DHT22;6870;50.944;6.932;2023-05-13T02:59:40;22.80;37.90
7341;DHT22;6870;50.944;6.932;2023-05-13T03:02:08;23.00;38.20
7341;DHT22;6870;50.944;6.932;2023-05-13T03:04:37;23.00;38.50
7341;DHT22;6870;50.944;6.932;2023-05-13T03:07:06;22.90;38.70
7341;DHT22;6870;50.944;6.932;2023-05-13T03:09:34;22.50;38.70
7341;DHT22;6870;50.944;6.932;2023-05-13T03:12:05;22.90;38.20
7341;DHT22;6870;50.944;6.932;2023-05-13T03:14:33;22.60;38.10
7341;DHT22;6870;50.944;6.932;2023-05-13T03:17:02;22.40;37.90
7341;DHT22;6870;50.944;6.932;2023-05-13T03:19:31;22.60;38.70
7341;DHT22;6870;50.944;6.932;2023-05-13T03:22:01;22.90;39.00
7341;DHT22;6870;50.944;6.932;2023-05-13T03:24:30;22.70;38.70
7341;DHT22;6870;50.944;6.932;2023-05-13T03:26:58;22.60;37.90
7341;DHT22;6870;50.944;6.932;2023-05-13T03:29:26;22.40;37.90
7341;DHT22;6870;50.944;6.932;2023-05-13T03:31:55;22.50;37.90
7341;DHT22;6870;50.944;6.932;2023-05-13T03:34:23;22.40;38.60
7341;DHT22;6870;50.944;6.932;2023-05-13T03:36:51;22.80;38.20
7341;DHT22;6870;50.944;6.932;2023-05-13T03:39:20;22.70;38.30
7341;DHT22;6870;50.944;6.932;2023-05-13T03:41:48;22.90;38.70
7341;DHT22;6870;50.944;6.932;2023-05-13T03:44:16;22.60;38.50
7341;DHT22;6870;50.944;6.932;2023-05-13T03:46:44;22.80;38.70
7341;DHT22;6870;50.944;6.932;2023-05-13T03:49:12;22.70;38.60
7341;DHT22;6870;50.944;6.932;2023-05-13T03:51:41;22.70;38.60
7341;DHT22;6870;50.944;6.932;2023-05-13T03:54:09;22.60;38.60
7341;DHT22;6870;50.944;6.932;2023-05-13T03:56:38;22.90;38.80
7341;DHT22;6870;50.944;6.932;2023-05-13T03:59:06;22.40;38.50
7341;DHT22;6870;50.944;6.932;2023-05-13T04:01:34;22.80;38.90
7341;DHT22;6870;50.944;6.932;2023-05-13T04:04:03;22.90;39.10
7341;DHT22;6870;50.944;6.932;2023-05-13T04:06:31;22.60;38.90
7341;DHT22;6870;50.944;6.932;2023-05-13T04:08:59;22.80;38.90
7341;DHT22;6870;50.944;6.932;2023-05-13T04:11:30;22.50;38.40
7341;DHT22;6870;50.944;6.932;2023-05-13T04:14:00;22.90;38.70
7341;DHT22;6870;50.944;6.932;2023-05-13T04:16:28;22.90;38.60
7341;DHT22;6870;50.944;6.932;2023-05-13T04:18:56;22.60;38.40
7341;DHT22;6870;50.944;6.932;2023-05-13T04:21:24;22.60;38.40
7341;DHT22;6870;50.944;6.932;2023-05-13T04:23:52;22.80;38.60
7341;DHT22;6870;50.944;6.932;2023-05-13T04:26:20;22.70;38.60
7341;DHT22;6870;50.944;6.932;2023-05-13T04:28:48;22.80;38.40
7341;DHT22;6870;50.944;6.932;2023-05-13T04:31:18;22.70;38.20
7341;DHT22;6870;50.944;6.932;2023-05-13T04:33:47;22.60;39.00
7341;DHT22;6870;50.944;6.932;2023-05-13T04:36:15;23.10;38.90
7341;DHT22;6870;50.944;6.932;2023-05-13T04:38:43;22.70;38.70
7341;DHT22;6870;50.944;6.932;2023-05-13T04:41:11;22.50;38.10
7341;DHT22;6870;50.944;6.932;2023-05-13T04:43:38;23.00;38.90
7341;DHT22;6870;50.944;6.932;2023-05-13T04:46:07;23.00;38.60
7341;DHT22;6870;50.944;6.932;2023-05-13T04:48:36;22.80;39.30
7341;DHT22;6870;50.944;6.932;2023-05-13T04:51:04;22.80;38.30
7341;DHT22;6870;50.944;6.932;2023-05-13T04:53:33;23.10;38.70
7341;DHT22;6870;50.944;6.932;2023-05-13T04:56:02;22.80;38.80
7341;DHT22;6870;50.944;6.932;2023-05-13T04:58:30;22.50;38.70
7341;DHT22;6870;50.944;6.932;2023-05-13T05:00:58;22.70;38.50
7341;DHT22;6870;50.944;6.932;2023-05-13T05:03:26;23.00;38.80
7341;DHT22;6870;50.944;6.932;2023-05-13T05:05:56;22.60;38.40
7341;DHT22;6870;50.944;6.932;2023-05-13T05:08:24;22.80;39.20
7341;DHT22;6870;50.944;6.932;2023-05-13T05:10:54;23.10;38.90
7341;DHT22;6870;50.944;6.932;2023-05-13T05:13:22;22.70;38.40
7341;DHT22;6870;50.944;6.932;2023-05-13T05:15:50;22.90;38.90
7341;DHT22;6870;50.944;6.932;2023-05-13T05:18:18;23.10;38.80
7341;DHT22;6870;50.944;6.932;2023-05-13T05:20:46;22.70;38.70
7341;DHT22;6870;50.944;6.932;2023-05-13T05:23:15;23.20;39.50
7341;DHT22;6870;50.944;6.932;2023-05-13T05:25:43;23.00;38.60
7341;DHT22;6870;50.944;6.932;2023-05-13T05:28:12;23.00;38.80
7341;DHT22;6870;50.944;6.932;2023-05-13T05:30:41;23.00;38.80
7341;DHT22;6870;50.944;6.932;2023-05-13T05:33:09;22.60;38.50
7341;DHT22;6870;50.944;6.932;2023-05-13T05:35:37;23.20;39.00
7341;DHT22;6870;50.944;6.932;2023-05-13T05:38:06;22.80;38.90
7341;DHT22;6870;50.944;6.932;2023-05-13T05:40:38;23.10;38.90
7341;DHT22;6870;50.944;6.932;2023-05-13T05:43:07;23.10;39.70
7341;DHT22;6870;50.944;6.932;2023-05-13T05:45:37;23.20;39.30
7341;DHT22;6870;50.944;6.932;2023-05-13T05:48:06;23.20;39.70
7341;DHT22;6870;50.944;6.932;2023-05-13T05:50:35;22.70;39.50
7341;DHT22;6870;50.944;6.932;2023-05-13T05:53:03;22.60;38.40
7341;DHT22;6870;50.944;6.932;2023-05-13T05:55:32;22.50;38.20
7341;DHT22;6870;50.944;6.932;2023-05-13T05:58:03;22.60;38.70
7341;DHT22;6870;50.944;6.932;2023-05-13T06:00:32;23.00;37.70
7341;DHT22;6870;50.944;6.932;2023-05-13T06:03:02;22.70;36.90
7341;DHT22;6870;50.944;6.932;2023-05-13T06:05:30;22.80;36.20
7341;DHT22;6870;50.944;6.932;2023-05-13T06:07:58;22.40;35.50
7341;DHT22;6870;50.944;6.932;2023-05-13T06:10:27;22.50;36.00
7341;DHT22;6870;50.944;6.932;2023-05-13T06:12:55;22.70;35.70
7341;DHT22;6870;50.944;6.932;2023-05-13T06:15:24;22.60;35.00
7341;DHT22;6870;50.944;6.932;2023-05-13T06:17:52;22.70;36.00
7341;DHT22;6870;50.944;6.932;2023-05-13T06:20:20;22.60;34.60
7341;DHT22;6870;50.944;6.932;2023-05-13T06:22:49;22.60;35.50
7341;DHT22;6870;50.944;6.932;2023-05-13T06:25:17;22.60;34.90
7341;DHT22;6870;50.944;6.932;2023-05-13T06:27:45;22.90;35.00
7341;DHT22;6870;50.944;6.932;2023-05-13T06:30:13;22.80;34.80
7341;DHT22;6870;50.944;6.932;2023-05-13T06:32:42;22.50;34.30
7341;DHT22;6870;50.944;6.932;2023-05-13T06:35:26;22.50;34.20
7341;DHT22;6870;50.944;6.932;2023-05-13T06:37:54;22.90;34.80
7341;DHT22;6870;50.944;6.932;2023-05-13T06:40:22;22.90;34.60
7341;DHT22;6870;50.944;6.932;2023-05-13T06:42:50;22.60;34.40
7341;DHT22;6870;50.944;6.932;2023-05-13T06:45:18;22.50;34.20
7341;DHT22;6870;50.944;6.932;2023-05-13T06:47:50;22.80;34.20
7341;DHT22;6870;50.944;6.932;2023-05-13T06:50:19;22.50;34.20
7341;DHT22;6870;50.944;6.932;2023-05-13T06:52:48;22.60;34.40
7341;DHT22;6870;50.944;6.932;2023-05-13T06:55:16;22.70;34.60
7341;DHT22;6870;50.944;6.932;2023-05-13T06:57:44;22.60;34.20
7341;DHT22;6870;50.944;6.932;2023-05-13T07:00:13;22.80;35.80
7341;DHT22;6870;50.944;6.932;2023-05-13T07:02:42;22.60;34.60
7341;DHT22;6870;50.944;6.932;2023-05-13T07:05:12;22.60;33.70
7341;DHT22;6870;50.944;6.932;2023-05-13T07:07:40;23.10;34.10
7341;DHT22;6870;50.944;6.932;2023-05-13T07:10:09;22.80;33.10
7341;DHT22;6870;50.944;6.932;2023-05-13T07:12:37;22.60;32.90
7341;DHT22;6870;50.944;6.932;2023-05-13T07:15:06;22.50;30.40
7341;DHT22;6870;50.944;6.932;2023-05-13T07:17:34;22.60;30.10
7341;DHT22;6870;50.944;6.932;2023-05-13T07:20:03;22.50;31.70
7341;DHT22;6870;50.944;6.932;2023-05-13T07:22:34;22.50;30.70
7341;DHT22;6870;50.944;6.932;2023-05-13T07:25:02;22.40;29.20
7341;DHT22;6870;50.944;6.932;2023-05-13T07:27:30;22.60;29.60
7341;DHT22;6870;50.944;6.932;2023-05-13T07:29:58;22.80;29.80
7341;DHT22;6870;50.944;6.932;2023-05-13T07:32:28;22.50;30.50
7341;DHT22;6870;50.944;6.932;2023-05-13T07:34:56;22.90;30.50
7341;DHT22;6870;50.944;6.932;2023-05-13T07:37:24;22.50;30.10
7341;DHT22;6870;50.944;6.932;2023-05-13T07:39:54;22.90;30.30
7341;DHT22;6870;50.944;6.932;2023-05-13T07:42:23;22.60;28.70
7341;DHT22;6870;50.944;6.932;2023-05-13T07:44:51;22.70;30.00
7341;DHT22;6870;50.944;6.932;2023-05-13T07:47:19;22.60;29.60
7341;DHT22;6870;50.944;6.932;2023-05-13T07:49:48;22.80;29.40
7341;DHT22;6870;50.944;6.932;2023-05-13T07:52:16;23.00;29.00
7341;DHT22;6870;50.944;6.932;2023-05-13T07:54:44;23.10;27.60
7341;DHT22;6870;50.944;6.932;2023-05-13T07:57:13;23.00;25.90
7341;DHT22;6870;50.944;6.932;2023-05-13T07:59:41;22.50;26.90
7341;DHT22;6870;50.944;6.932;2023-05-13T08:02:10;22.40;28.70
7341;DHT22;6870;50.944;6.932;2023-05-13T08:04:39;22.70;28.60
7341;DHT22;6870;50.944;6.932;2023-05-13T08:07:08;22.90;28.50
7341;DHT22;6870;50.944;6.932;2023-05-13T08:09:36;22.60;28.50
7341;DHT22;6870;50.944;6.932;2023-05-13T08:12:05;23.10;29.00
7341;DHT22;6870;50.944;6.932;2023-05-13T08:14:34;22.80;28.50
7341;DHT22;6870;50.944;6.932;2023-05-13T08:17:04;22.90;28.40
7341;DHT22;6870;50.944;6.932;2023-05-13T08:19:34;23.10;28.40
7341;DHT22;6870;50.944;6.932;2023-05-13T08:22:02;23.20;28.30
7341;DHT22;6870;50.944;6.932;2023-05-13T08:24:30;22.80;27.80
7341;DHT22;6870;50.944;6.932;2023-05-13T08:26:58;22.90;27.70
7341;DHT22;6870;50.944;6.932;2023-05-13T08:29:26;23.40;28.30
7341;DHT22;6870;50.944;6.932;2023-05-13T08:31:56;23.30;27.60
7341;DHT22;6870;50.944;6.932;2023-05-13T08:34:24;22.90;25.20
7341;DHT22;6870;50.944;6.932;2023-05-13T08:36:52;23.30;25.60
7341;DHT22;6870;50.944;6.932;2023-05-13T08:39:20;23.00;26.10
7341;DHT22;6870;50.944;6.932;2023-05-13T08:41:51;22.80;26.20
7341;DHT22;6870;50.944;6.932;2023-05-13T08:44:24;23.10;27.40
7341;DHT22;6870;50.944;6.932;2023-05-13T08:47:03;23.20;27.40
7341;DHT22;6870;50.944;6.932;2023-05-13T08:49:35;22.90;27.40
7341;DHT22;6870;50.944;6.932;2023-05-13T08:52:04;23.20;25.00
7341;DHT22;6870;50.944;6.932;2023-05-13T08:54:33;23.30;26.40
7341;DHT22;6870;50.944;6.932;2023-05-13T08:57:01;23.00;26.60
7341;DHT22;6870;50.944;6.932;2023-05-13T08:59:30;22.80;26.60
7341;DHT22;6870;50.944;6.932;2023-05-13T09:01:59;23.20;26.60
7341;DHT22;6870;50.944;6.932;2023-05-13T09:04:29;23.30;26.20
7341;DHT22;6870;50.944;6.932;2023-05-13T09:06:57;23.00;26.40
7341;DHT22;6870;50.944;6.932;2023-05-13T09:09:26;23.40;26.80
7341;DHT22;6870;50.944;6.932;2023-05-13T09:11:54;23.30;26.40
7341;DHT22;6870;50.944;6.932;2023-05-13T09:14:28;23.50;25.80
7341;DHT22;6870;50.944;6.932;2023-05-13T09:17:00;23.40;25.60
7341;DHT22;6870;50.944;6.932;2023-05-13T09:19:28;23.40;24.60
7341;DHT22;6870;50.944;6.932;2023-05-13T09:21:56;23.10;22.30
7341;DHT22;6870;50.944;6.932;2023-05-13T09:24:25;23.30;22.90
7341;DHT22;6870;50.944;6.932;2023-05-13T09:26:53;23.60;23.00
7341;DHT22;6870;50.944;6.932;2023-05-13T09:29:22;23.40;22.10
7341;DHT22;6870;50.944;6.932;2023-05-13T09:31:52;23.30;24.00
7341;DHT22;6870;50.944;6.932;2023-05-13T09:34:25;23.60;24.10
7341;DHT22;6870;50.944;6.932;2023-05-13T09:37:02;23.70;24.50
7341;DHT22;6870;50.944;6.932;2023-05-13T09:39:33;23.70;24.60
7341;DHT22;6870;50.944;6.932;2023-05-13T09:42:02;23.50;23.90
7341;DHT22;6870;50.944;6.932;2023-05-13T09:44:31;23.80;23.40
7341;DHT22;6870;50.944;6.932;2023-05-13T09:47:00;23.60;22.70
7341;DHT22;6870;50.944;6.932;2023-05-13T09:49:30;24.00;23.60
7341;DHT22;6870;50.944;6.932;2023-05-13T09:51:59;24.00;24.10
7341;DHT22;6870;50.944;6.932;2023-05-13T09:54:33;24.10;23.90
7341;DHT22;6870;50.944;6.932;2023-05-13T09:57:03;24.10;22.70
7341;DHT22;6870;50.944;6.932;2023-05-13T09:59:32;23.70;21.90
7341;DHT22;6870;50.944;6.932;2023-05-13T10:02:04;23.70;24.20
7341;DHT22;6870;50.944;6.932;2023-05-13T10:04:34;23.50;23.50
7341;DHT22;6870;50.944;6.932;2023-05-13T10:07:03;23.70;24.00
7341;DHT22;6870;50.944;6.932;2023-05-13T10:09:34;23.90;24.20
7341;DHT22;6870;50.944;6.932;2023-05-13T10:12:06;24.10;24.30
7341;DHT22;6870;50.944;6.932;2023-05-13T10:14:36;23.70;24.40
7341;DHT22;6870;50.944;6.932;2023-05-13T10:17:05;23.50;24.20
7341;DHT22;6870;50.944;6.932;2023-05-13T10:19:36;23.90;24.80
7341;DHT22;6870;50.944;6.932;2023-05-13T10:22:04;23.90;24.20
7341;DHT22;6870;50.944;6.932;2023-05-13T10:24:33;23.90;24.20
7341;DHT22;6870;50.944;6.932;2023-05-13T10:27:05;23.50;23.90
7341;DHT22;6870;50.944;6.932;2023-05-13T10:29:35;23.80;24.50
7341;DHT22;6870;50.944;6.932;2023-05-13T10:32:06;23.90;24.20
7341;DHT22;6870;50.944;6.932;2023-05-13T10:34:37;24.00;24.90
7341;DHT22;6870;50.944;6.932;2023-05-13T10:40:48;23.80;24.90
7341;DHT22;6870;50.944;6.932;2023-05-13T10:43:26;23.70;25.00
7341;DHT22;6870;50.944;6.932;2023-05-13T10:45:57;23.40;23.60
7341;DHT22;6870;50.944;6.932;2023-05-13T10:48:30;23.70;24.00
7341;DHT22;6870;50.944;6.932;2023-05-13T10:51:06;23.50;24.00
7341;DHT22;6870;50.944;6.932;2023-05-13T10:53:41;23.60;23.80
7341;DHT22;6870;50.944;6.932;2023-05-13T10:56:10;23.60;23.90
7341;DHT22;6870;50.944;6.932;2023-05-13T10:58:39;23.50;23.90
7341;DHT22;6870;50.944;6.932;2023-05-13T11:01:18;23.40;23.70
7341;DHT22;6870;50.944;6.932;2023-05-13T11:03:53;23.60;23.90
7341;DHT22;6870;50.944;6.932;2023-05-13T11:06:28;23.30;24.10
7341;DHT22;6870;50.944;6.932;2023-05-13T11:08:58;23.40;24.20
7341;DHT22;6870;50.944;6.932;2023-05-13T11:11:30;23.50;24.40
7341;DHT22;6870;50.944;6.932;2023-05-13T11:14:06;23.70;24.40
7341;DHT22;6870;50.944;6.932;2023-05-13T11:16:36;23.60;24.40
7341;DHT22;6870;50.944;6.932;2023-05-13T11:19:08;23.50;23.90
7341;DHT22;6870;50.944;6.932;2023-05-13T11:21:48;23.60;24.50
7341;DHT22;6870;50.944;6.932;2023-05-13T11:24:19;23.70;23.90
7341;DHT22;6870;50.944;6.932;2023-05-13T11:26:50;23.60;23.40
7341;DHT22;6870;50.944;6.932;2023-05-13T11:29:29;23.30;23.80
7341;DHT22;6870;50.944;6.932;2023-05-13T11:31:59;23.20;23.40
7341;DHT22;6870;50.944;6.932;2023-05-13T11:34:32;23.50;24.20
7341;DHT22;6870;50.944;6.932;2023-05-13T11:37:09;23.40;23.90
7341;DHT22;6870;50.944;6.932;2023-05-13T11:39:38;23.20;22.50
7341;DHT22;6870;50.944;6.932;2023-05-13T11:42:08;23.20;23.10
7341;DHT22;6870;50.944;6.932;2023-05-13T11:44:44;23.30;23.50
7341;DHT22;6870;50.944;6.932;2023-05-13T11:47:13;22.80;23.30
7341;DHT22;6870;50.944;6.932;2023-05-13T11:49:42;23.20;23.70
7341;DHT22;6870;50.944;6.932;2023-05-13T11:52:14;22.70;23.40
7341;DHT22;6870;50.944;6.932;2023-05-13T11:54:44;22.90;23.30
7341;DHT22;6870;50.944;6.932;2023-05-13T11:57:18;23.20;23.70
7341;DHT22;6870;50.944;6.932;2023-05-13T11:59:55;23.10;24.10
7341;DHT22;6870;50.944;6.932;2023-05-13T12:02:26;23.30;24.30
7341;DHT22;6870;50.944;6.932;2023-05-13T12:04:59;23.20;23.80
7341;DHT22;6870;50.944;6.932;2023-05-13T12:07:32;23.20;23.70
7341;DHT22;6870;50.944;6.932;2023-05-13T12:10:02;23.30;24.20
7341;DHT22;6870;50.944;6.932;2023-05-13T12:12:38;23.30;24.40
7341;DHT22;6870;50.944;6.932;2023-05-13T12:15:09;23.40;24.60
7341;DHT22;6870;50.944;6.932;2023-05-13T12:17:38;23.30;24.70
7341;DHT22;6870;50.944;6.932;2023-05-13T12:20:08;23.40;24.90
7341;DHT22;6870;50.944;6.932;2023-05-13T12:22:50;23.50;25.10
7341;DHT22;6870;50.944;6.932;2023-05-13T12:25:38;23.50;25.20
7341;DHT22;6870;50.944;6.932;2023-05-13T12:28:09;23.40;24.20
7341;DHT22;6870;50.944;6.932;2023-05-13T12:30:40;23.40;25.40
7341;DHT22;6870;50.944;6.932;2023-05-13T12:33:13;23.30;25.40
7341;DHT22;6870;50.944;6.932;2023-05-13T12:35:43;23.40;25.50
7341;DHT22;6870;50.944;6.932;2023-05-13T12:38:16;23.40;25.50
7341;DHT22;6870;50.944;6.932;2023-05-13T12:40:46;23.20;25.50
7341;DHT22;6870;50.944;6.932;2023-05-13T12:43:15;23.50;25.70
7341;DHT22;6870;50.944;6.932;2023-05-13T12:45:46;23.10;25.50
7341;DHT22;6870;50.944;6.932;2023-05-13T12:48:14;23.30;25.80
7341;DHT22;6870;50.944;6.932;2023-05-13T12:50:42;23.50;26.00
7341;DHT22;6870;50.944;6.932;2023-05-13T12:53:10;23.50;26.00
7341;DHT22;6870;50.944;6.932;2023-05-13T12:55:40;23.60;26.10
7341;DHT22;6870;50.944;6.932;2023-05-13T12:58:08;23.50;26.10
7341;DHT22;6870;50.944;6.932;2023-05-13T13:00:39;23.40;26.10
7341;DHT22;6870;50.944;6.932;2023-05-13T13:03:07;23.50;26.30
7341;DHT22;6870;50.944;6.932;2023-05-13T13:05:36;23.60;26.40
7341;DHT22;6870;50.944;6.932;2023-05-13T13:08:04;23.30;25.80
7341;DHT22;6870;50.944;6.932;2023-05-13T13:10:32;23.50;25.80
7341;DHT22;6870;50.944;6.932;2023-05-13T13:13:02;23.60;26.00
7341;DHT22;6870;50.944;6.932;2023-05-13T13:15:30;23.40;25.40
7341;DHT22;6870;50.944;6.932;2023-05-13T13:17:58;23.60;21.20
7341;DHT22;6870;50.944;6.932;2023-05-13T13:20:26;23.50;23.90
7341;DHT22;6870;50.944;6.932;2023-05-13T13:22:54;23.60;22.40
7341;DHT22;6870;50.944;6.932;2023-05-13T13:25:22;23.60;22.90
7341;DHT22;6870;50.944;6.932;2023-05-13T13:27:50;23.60;20.90
7341;DHT22;6870;50.944;6.932;2023-05-13T13:30:20;23.80;20.30
7341;DHT22;6870;50.944;6.932;2023-05-13T13:32:48;23.90;19.10
7341;DHT22;6870;50.944;6.932;2023-05-13T13:35:16;23.90;20.40
7341;DHT22;6870;50.944;6.932;2023-05-13T13:37:44;24.00;19.90
7341;DHT22;6870;50.944;6.932;2023-05-13T13:40:15;24.30;19.70
7341;DHT22;6870;50.944;6.932;2023-05-13T13:42:44;24.50;19.10
7341;DHT22;6870;50.944;6.932;2023-05-13T13:45:12;24.50;19.40
7341;DHT22;6870;50.944;6.932;2023-05-13T13:47:42;24.60;19.50
7341;DHT22;6870;50.944;6.932;2023-05-13T13:50:10;24.80;19.50
7341;DHT22;6870;50.944;6.932;2023-05-13T13:52:38;24.90;17.50
7341;DHT22;6870;50.944;6.932;2023-05-13T13:55:08;24.50;19.30
7341;DHT22;6870;50.944;6.932;2023-05-13T13:57:37;24.50;19.10
7341;DHT22;6870;50.944;6.932;2023-05-13T14:00:07;24.70;19.70
7341;DHT22;6870;50.944;6.932;2023-05-13T14:02:35;25.10;17.80
7341;DHT22;6870;50.944;6.932;2023-05-13T14:05:06;24.50;18.40
7341;DHT22;6870;50.944;6.932;2023-05-13T14:07:35;24.90;17.70
7341;DHT22;6870;50.944;6.932;2023-05-13T14:10:04;24.60;15.90
7341;DHT22;6870;50.944;6.932;2023-05-13T14:12:33;24.40;17.30
7341;DHT22;6870;50.944;6.932;2023-05-13T14:15:02;24.30;18.30
7341;DHT22;6870;50.944;6.932;2023-05-13T14:17:31;24.40;19.90
7341;DHT22;6870;50.944;6.932;2023-05-13T14:19:59;24.40;19.30
7341;DHT22;6870;50.944;6.932;2023-05-13T14:22:29;24.50;20.00
7341;DHT22;6870;50.944;6.932;2023-05-13T14:24:58;25.10;20.80
7341;DHT22;6870;50.944;6.932;2023-05-13T14:27:27;24.50;20.70
7341;DHT22;6870;50.944;6.932;2023-05-13T14:29:55;24.80;21.20
7341;DHT22;6870;50.944;6.932;2023-05-13T14:32:23;24.70;21.60
7341;DHT22;6870;50.944;6.932;2023-05-13T14:34:51;24.90;22.30
7341;DHT22;6870;50.944;6.932;2023-05-13T14:37:20;24.50;22.20
7341;DHT22;6870;50.944;6.932;2023-05-13T14:39:50;24.40;22.40
7341;DHT22;6870;50.944;6.932;2023-05-13T14:42:18;24.70;23.00
7341;DHT22;6870;50.944;6.932;2023-05-13T14:44:46;24.60;23.20
7341;DHT22;6870;50.944;6.932;2023-05-13T14:47:14;24.30;23.10
7341;DHT22;6870;50.944;6.932;2023-05-13T14:49:42;24.60;23.40
7341;DHT22;6870;50.944;6.932;2023-05-13T14:52:10;24.50;23.70
7341;DHT22;6870;50.944;6.932;2023-05-13T14:54:39;24.00;23.60
7341;DHT22;6870;50.944;6.932;2023-05-13T14:57:08;24.10;23.90
7341;DHT22;6870;50.944;6.932;2023-05-13T14:59:36;24.20;23.90
7341;DHT22;6870;50.944;6.932;2023-05-13T15:02:04;24.70;25.00
7341;DHT22;6870;50.944;6.932;2023-05-13T15:04:32;24.50;24.20
7341;DHT22;6870;50.944;6.932;2023-05-13T15:07:01;24.40;24.00
7341;DHT22;6870;50.944;6.932;2023-05-13T15:09:29;24.70;24.20
7341;DHT22;6870;50.944;6.932;2023-05-13T15:11:57;24.30;24.00
7341;DHT22;6870;50.944;6.932;2023-05-13T15:14:26;24.70;24.40
7341;DHT22;6870;50.944;6.932;2023-05-13T15:16:55;24.70;24.40
7341;DHT22;6870;50.944;6.932;2023-05-13T15:19:23;24.80;24.40
7341;DHT22;6870;50.944;6.932;2023-05-13T15:21:51;24.90;24.70
7341;DHT22;6870;50.944;6.932;2023-05-13T15:24:19;24.30;24.20
7341;DHT22;6870;50.944;6.932;2023-05-13T15:26:48;24.50;24.60
7341;DHT22;6870;50.944;6.932;2023-05-13T15:29:16;24.70;24.70
7341;DHT22;6870;50.944;6.932;2023-05-13T15:31:48;24.50;24.70
7341;DHT22;6870;50.944;6.932;2023-05-13T15:34:16;24.70;25.00
7341;DHT22;6870;50.944;6.932;2023-05-13T15:36:45;24.50;24.70
7341;DHT22;6870;50.944;6.932;2023-05-13T15:39:13;24.80;25.20
7341;DHT22;6870;50.944;6.932;2023-05-13T15:41:42;24.40;24.90
7341;DHT22;6870;50.944;6.932;2023-05-13T15:44:10;24.60;25.60
7341;DHT22;6870;50.944;6.932;2023-05-13T15:46:39;24.60;24.90
7341;DHT22;6870;50.944;6.932;2023-05-13T15:49:09;24.40;25.60
7341;DHT22;6870;50.944;6.932;2023-05-13T15:51:37;24.20;24.80
7341;DHT22;6870;50.944;6.932;2023-05-13T15:54:05;24.10;24.60
7341;DHT22;6870;50.944;6.932;2023-05-13T15:56:33;24.30;24.50
7341;DHT22;6870;50.944;6.932;2023-05-13T15:59:01;24.40;24.90
7341;DHT22;6870;50.944;6.932;2023-05-13T16:01:29;24.40;25.40
7341;DHT22;6870;50.944;6.932;2023-05-13T16:03:57;24.10;25.10
7341;DHT22;6870;50.944;6.932;2023-05-13T16:06:27;24.30;24.90
7341;DHT22;6870;50.944;6.932;2023-05-13T16:08:55;24.10;25.00
7341;DHT22;6870;50.944;6.932;2023-05-13T16:11:23;24.20;25.20
7341;DHT22;6870;50.944;6.932;2023-05-13T16:13:51;24.20;25.60
7341;DHT22;6870;50.944;6.932;2023-05-13T16:16:19;24.00;25.20
7341;DHT22;6870;50.944;6.932;2023-05-13T16:18:47;24.50;26.30
7341;DHT22;6870;50.944;6.932;2023-05-13T16:21:16;24.00;25.60